In Rescue
 
Open Full Screen Window  High Contrast Mode
September 19, 2019 4:53 PM EDT
Weather Information
Wind Direction
  ---
Wind Speed
  00 kt (0 mph)
Wind Gust
  00 kt (0 mph)
Altimeter
30.08 in
Visibility
10 SM
Temperature
22° C
72° F
Dewpoint
16° C
61° F
Humidity
69%
1hr Rain Fall
00.00 in.
24hr Rain Fall
00.07 in.
Sky Condition
Clear
VFR

METAR KMCD 192053Z AUTO 00000KT 10SM CLR 22/16 A3008 RMK AO2 T02210156

FAA Disclaimer: The data displayed is for advisory purposes only and is not to be used for flight planning or operations.